Terminal Aerodrome Forecast
Issued by NWS Sioux Falls, SD

Home | Current Version | Previous Version | Text Only | Print | Product List | Glossary On
Versions: 1 2 3 4 5 6 7 8 9 10 11 12 13 14 15 16 17 18 19 20 21 22 23 24 25 26 27 28 29 30 31 32 33 34 35 36
405
FTUS43 KFSD 281130
TAFSUX
TAF
KSUX 281130Z 2812/2912 07004KT P6SM SCT015 OVC040
     FM281500 22006KT P6SM OVC050
     FM281800 25008KT P6SM SHRA VCTS OVC070CB PROB30 2821/2823 4SM
      TSRA OVC025CB
     FM282300 29011KT P6SM OVC050
     FM290200 30007KT P6SM BKN080
     FM290400 29005KT P6SM SCT080=

USA.gov is the U.S. government's official web portal to all federal, state and local government web resources and services.